Time;durP1;ratioP1;P1;durP2;ratioP2;P2;SDS_P1;SDS_P2;PMS_P1;PMS_P2;Temp;Humidity;BMP_temperature;BMP_pressure;BME280_temperature;BME280_humidity;BME280_pressure;Samples;Min_cycle;Max_cycle;Signal;HPM_P1;HPM_P2
2021/05/30 00:00:37;;;;;;;3.45;1.73;;;14.40;97.40;;;;;;5033073;28;20036;-71
2021/05/30 00:03:04;;;;;;;2.53;1.50;;;14.50;97.50;;;;;;5033318;28;20029;-70
2021/05/30 00:05:30;;;;;;;3.70;1.73;;;14.50;97.70;;;;;;5033140;28;20060;-70
2021/05/30 00:07:57;;;;;;;3.50;1.65;;;14.50;97.70;;;;;;5034073;28;20124;-70
2021/05/30 00:10:25;;;;;;;4.25;1.63;;;14.40;98.10;;;;;;5033022;28;20033;-71
2021/05/30 00:12:52;;;;;;;3.83;1.92;;;14.20;98.50;;;;;;5032793;28;20389;-70
2021/05/30 00:15:18;;;;;;;4.47;1.52;;;14.30;98.80;;;;;;5034501;28;20030;-70
2021/05/30 00:17:43;;;;;;;3.85;1.70;;;14.20;99.20;;;;;;5033975;28;20037;-70
2021/05/30 00:20:11;;;;;;;3.58;1.98;;;14.10;99.30;;;;;;5032865;28;20029;-70
2021/05/30 00:22:37;;;;;;;4.10;2.00;;;14.10;99.60;;;;;;5016132;28;20484;-71
2021/05/30 00:25:05;;;;;;;4.18;1.80;;;14.00;99.90;;;;;;5032992;28;20040;-70
2021/05/30 00:27:32;;;;;;;5.60;2.13;;;13.90;99.90;;;;;;5033856;28;20052;-70
2021/05/30 00:29:59;;;;;;;3.85;1.88;;;13.80;99.90;;;;;;5033914;28;20070;-69
2021/05/30 00:32:25;;;;;;;2.67;1.80;;;13.80;99.90;;;;;;5033738;28;20037;-70
2021/05/30 00:34:50;;;;;;;3.63;1.77;;;13.60;99.90;;;;;;5033974;28;20034;-70
2021/05/30 00:37:16;;;;;;;3.58;2.00;;;13.60;99.90;;;;;;5033881;28;20416;-70
2021/05/30 00:39:42;;;;;;;6.00;2.13;;;13.60;99.90;;;;;;5032803;28;20033;-70
2021/05/30 00:42:08;;;;;;;2.90;1.80;;;13.50;99.90;;;;;;5033535;28;20041;-70
2021/05/30 00:44:34;;;;;;;3.60;2.00;;;13.60;99.90;;;;;;5032562;28;20033;-70
2021/05/30 00:47:00;;;;;;;5.85;2.00;;;13.50;99.90;;;;;;5034074;28;20144;-71
2021/05/30 00:49:27;;;;;;;3.30;1.83;;;13.60;99.90;;;;;;5033491;28;20030;-71
2021/05/30 00:51:54;;;;;;;3.95;2.00;;;13.60;99.90;;;;;;5032083;28;20474;-69
2021/05/30 00:54:20;;;;;;;5.20;2.20;;;13.40;99.90;;;;;;5032121;28;20029;-70
2021/05/30 00:56:46;;;;;;;3.88;2.10;;;13.30;99.90;;;;;;5033475;28;20121;-70
2021/05/30 00:59:13;;;;;;;3.92;2.00;;;13.20;99.90;;;;;;5033309;28;20030;-70
2021/05/30 01:01:41;;;;;;;4.20;2.00;;;13.20;99.90;;;;;;5032036;28;20037;-70
2021/05/30 01:04:11;;;;;;;2.90;2.00;;;13.10;99.90;;;;;;5033310;28;20100;-70
2021/05/30 01:06:38;;;;;;;3.75;1.92;;;13.10;99.90;;;;;;5031826;28;20504;-70
2021/05/30 01:09:05;;;;;;;4.25;2.67;;;13.10;99.90;;;;;;5031888;28;20474;-70
2021/05/30 01:11:32;;;;;;;4.22;2.13;;;13.00;99.90;;;;;;5032748;28;20113;-70
2021/05/30 01:13:59;;;;;;;4.60;2.50;;;12.90;99.90;;;;;;5033175;28;20068;-71
2021/05/30 01:16:27;;;;;;;4.00;1.83;;;12.80;99.90;;;;;;5031738;28;20385;-71
2021/05/30 01:18:57;;;;;;;4.85;2.67;;;12.90;99.90;;;;;;5032838;28;20035;-71
2021/05/30 01:21:24;;;;;;;6.60;2.28;;;12.90;99.90;;;;;;5032875;28;20048;-71
2021/05/30 01:23:52;;;;;;;6.68;2.50;;;12.90;99.90;;;;;;5032996;28;20116;-70
2021/05/30 01:26:19;;;;;;;3.15;2.00;;;12.80;99.90;;;;;;5031902;28;20101;-71
2021/05/30 01:28:46;;;;;;;3.88;2.40;;;12.70;99.90;;;;;;5032317;28;20513;-71
2021/05/30 01:31:12;;;;;;;3.47;2.40;;;12.70;99.90;;;;;;5015364;28;20385;-71
2021/05/30 01:33:38;;;;;;;5.10;2.45;;;12.60;99.90;;;;;;5032488;28;20025;-71
2021/05/30 01:36:05;;;;;;;3.92;2.40;;;12.50;99.90;;;;;;5031287;28;20036;-70
2021/05/30 01:38:30;;;;;;;4.05;2.85;;;12.50;99.90;;;;;;5031666;28;20386;-71
2021/05/30 01:40:56;;;;;;;5.53;2.78;;;12.40;99.90;;;;;;5032401;28;20029;-70
2021/05/30 01:43:22;;;;;;;4.68;2.70;;;12.30;99.90;;;;;;5032515;28;20116;-71
2021/05/30 01:45:48;;;;;;;7.18;3.70;;;12.30;99.90;;;;;;5031231;28;20037;-71
2021/05/30 01:48:13;;;;;;;5.32;3.10;;;12.20;99.90;;;;;;5032436;28;20037;-71
2021/05/30 01:50:39;;;;;;;5.57;3.05;;;12.20;99.90;;;;;;5030879;28;20131;-71
2021/05/30 01:53:08;;;;;;;5.65;3.28;;;12.20;99.90;;;;;;5032526;28;20071;-71
2021/05/30 01:58:17;;;;;;;5.85;3.63;;;12.10;99.90;;;;;;5031506;28;20036;-71
2021/05/30 02:00:46;;;;;;;7.55;3.42;;;12.10;99.90;;;;;;5032237;28;20171;-70
2021/05/30 02:03:12;;;;;;;5.07;3.10;;;12.00;99.90;;;;;;5032433;28;20124;-71
2021/05/30 02:05:41;;;;;;;7.72;3.50;;;11.80;99.90;;;;;;5030922;28;20124;-71
2021/05/30 02:08:09;;;;;;;6.45;3.40;;;11.80;99.90;;;;;;5031246;28;20103;-70
2021/05/30 02:10:36;;;;;;;6.47;3.67;;;11.70;99.90;;;;;;5030912;28;20083;-71
2021/05/30 02:13:05;;;;;;;6.53;3.20;;;11.70;99.90;;;;;;5014473;28;20033;-71
2021/05/30 02:15:32;;;;;;;6.60;3.42;;;11.70;99.90;;;;;;5032373;28;20025;-70
2021/05/30 02:17:58;;;;;;;8.48;3.65;;;11.80;99.90;;;;;;5030764;28;20026;-71
2021/05/30 02:20:40;;;;;;;6.25;3.63;;;11.70;99.90;;;;;;5030906;28;20049;-71
2021/05/30 02:23:13;;;;;;;8.45;3.92;;;11.70;99.90;;;;;;5032655;28;20041;-71
2021/05/30 02:25:40;;;;;;;7.38;4.65;;;11.70;99.90;;;;;;5035264;28;20037;-71
2021/05/30 02:28:07;;;;;;;10.15;4.75;;;11.50;99.90;;;;;;5018288;28;20053;-71
2021/05/30 02:30:33;;;;;;;8.90;4.70;;;11.40;99.90;;;;;;5034902;28;20044;-71
2021/05/30 02:32:59;;;;;;;6.03;3.80;;;11.30;99.90;;;;;;5034480;28;20033;-71
2021/05/30 02:35:25;;;;;;;9.20;4.47;;;11.30;99.90;;;;;;5036136;28;20088;-71
2021/05/30 02:37:51;;;;;;;5.88;3.80;;;11.20;99.90;;;;;;5034730;28;20029;-71
2021/05/30 02:40:17;;;;;;;6.00;4.28;;;11.20;99.90;;;;;;5036053;28;20413;-71
2021/05/30 02:42:42;;;;;;;7.95;4.53;;;11.10;99.90;;;;;;5036226;28;20483;-71
2021/05/30 02:45:09;;;;;;;8.05;4.28;;;11.00;99.90;;;;;;5035057;28;20060;-71
2021/05/30 02:47:36;;;;;;;10.90;4.47;;;10.90;99.90;;;;;;5035890;28;20089;-71
2021/05/30 02:50:04;;;;;;;8.07;4.40;;;11.00;99.90;;;;;;5035676;28;20034;-70
2021/05/30 02:52:31;;;;;;;7.95;4.10;;;11.00;99.90;;;;;;5034725;28;20060;-71
2021/05/30 02:54:57;;;;;;;7.88;4.63;;;10.80;99.90;;;;;;5035471;28;20111;-71
2021/05/30 02:57:23;;;;;;;10.07;4.75;;;10.80;99.90;;;;;;5035975;28;20044;-71
2021/05/30 02:59:49;;;;;;;7.80;4.70;;;10.70;99.90;;;;;;5035520;28;20381;-71
2021/05/30 03:02:15;;;;;;;6.85;4.47;;;10.70;99.90;;;;;;5034562;28;20445;-71
2021/05/30 03:04:41;;;;;;;8.43;4.75;;;10.70;99.90;;;;;;5035795;28;20048;-71
2021/05/30 03:07:08;;;;;;;8.23;4.28;;;10.60;99.90;;;;;;5035696;28;20093;-71
2021/05/30 03:09:34;;;;;;;9.40;4.95;;;10.60;99.90;;;;;;5034332;28;20286;-70
2021/05/30 03:11:59;;;;;;;10.38;4.70;;;10.50;99.90;;;;;;5035236;28;20037;-71
2021/05/30 03:14:25;;;;;;;8.63;4.68;;;10.40;99.90;;;;;;5035237;28;20042;-71
2021/05/30 03:16:51;;;;;;;10.05;5.63;;;10.40;99.90;;;;;;5035154;28;20377;-71
2021/05/30 03:19:18;;;;;;;8.80;4.70;;;10.40;99.90;;;;;;5035406;28;20087;-71
2021/05/30 03:21:43;;;;;;;10.98;5.55;;;10.40;99.90;;;;;;5035204;28;20043;-71
2021/05/30 03:24:09;;;;;;;11.70;5.10;;;10.30;99.90;;;;;;5034172;28;20038;-71
2021/05/30 03:26:37;;;;;;;8.82;4.93;;;10.30;99.90;;;;;;5034113;28;20053;-71
2021/05/30 03:29:04;;;;;;;7.50;5.28;;;10.30;99.90;;;;;;5017367;28;20490;-71
2021/05/30 03:31:30;;;;;;;9.27;5.10;;;10.20;99.90;;;;;;5033714;28;20025;-70
2021/05/30 03:33:56;;;;;;;10.63;5.63;;;10.20;99.90;;;;;;5034216;28;20056;-70
2021/05/30 03:36:26;;;;;;;11.52;5.50;;;10.20;99.90;;;;;;5034996;28;20029;-70
2021/05/30 03:39:00;;;;;;;8.93;5.40;;;10.10;99.90;;;;;;5034871;28;20102;-70
2021/05/30 03:41:42;;;;;;;9.55;5.00;;;10.10;99.90;;;;;;5034055;28;20025;-71
2021/05/30 03:44:10;;;;;;;8.80;5.38;;;10.10;99.90;;;;;;5033547;28;20029;-72
2021/05/30 03:46:37;;;;;;;10.43;5.70;;;10.00;99.90;;;;;;5033441;28;20037;-71
2021/05/30 03:49:04;;;;;;;9.38;5.35;;;10.00;99.90;;;;;;5034828;28;20081;-71
2021/05/30 03:51:30;;;;;;;9.80;5.35;;;10.00;99.90;;;;;;5033801;28;20060;-71
2021/05/30 03:53:56;;;;;;;8.48;4.95;;;10.00;99.90;;;;;;5034467;28;20064;-71
2021/05/30 03:56:23;;;;;;;8.65;4.93;;;9.90;99.90;;;;;;5033483;28;20061;-71
2021/05/30 03:58:49;;;;;;;12.43;5.95;;;9.90;99.90;;;;;;5033334;28;20037;-71
2021/05/30 04:01:15;;;;;;;11.05;5.57;;;9.90;99.90;;;;;;5033296;28;20074;-71
2021/05/30 04:03:41;;;;;;;11.73;6.45;;;9.90;99.90;;;;;;5033335;28;20486;-71
2021/05/30 04:06:07;;;;;;;12.30;6.63;;;9.90;99.90;;;;;;5034373;28;20480;-72
2021/05/30 04:08:32;;;;;;;9.75;5.60;;;9.80;99.90;;;;;;5033420;28;20033;-72
2021/05/30 04:10:58;;;;;;;9.75;5.20;;;9.90;99.90;;;;;;5034175;28;20036;-72
2021/05/30 04:13:24;;;;;;;9.35;5.72;;;9.80;99.90;;;;;;5034109;28;20386;-71
2021/05/30 04:15:50;;;;;;;10.35;5.88;;;9.90;99.90;;;;;;5034178;28;20040;-72
2021/05/30 04:18:16;;;;;;;12.52;5.88;;;10.00;99.90;;;;;;5034482;28;20040;-71
2021/05/30 04:20:41;;;;;;;9.13;5.97;;;10.00;99.90;;;;;;5032970;28;20033;-72
2021/05/30 04:23:07;;;;;;;10.32;6.05;;;10.00;99.90;;;;;;5034051;28;20040;-72
2021/05/30 04:25:33;;;;;;;11.18;5.82;;;10.00;99.90;;;;;;5032766;28;20120;-72
2021/05/30 04:27:59;;;;;;;10.18;5.32;;;10.10;99.90;;;;;;5032650;28;20124;-72
2021/05/30 04:30:25;;;;;;;8.73;5.32;;;10.10;99.90;;;;;;5034200;28;20087;-72
2021/05/30 04:32:50;;;;;;;7.85;5.22;;;10.10;99.90;;;;;;5034009;28;20413;-71
2021/05/30 04:35:16;;;;;;;9.73;5.20;;;10.20;99.90;;;;;;5033907;28;20033;-72
2021/05/30 04:37:42;;;;;;;10.25;5.45;;;10.20;99.90;;;;;;5032698;28;20029;-71
2021/05/30 04:40:09;;;;;;;8.98;6.00;;;10.20;99.90;;;;;;5034042;28;20041;-72
2021/05/30 04:42:35;;;;;;;9.35;5.70;;;10.20;99.90;;;;;;5032774;28;20381;-72
2021/05/30 04:45:02;;;;;;;10.43;5.82;;;10.40;99.90;;;;;;5033034;28;20030;-72
2021/05/30 04:47:28;;;;;;;9.15;5.45;;;10.40;99.90;;;;;;5033628;28;20034;-71
2021/05/30 04:49:54;;;;;;;9.43;5.15;;;10.40;99.90;;;;;;5032235;28;20516;-72
2021/05/30 04:52:20;;;;;;;9.27;5.43;;;10.50;99.90;;;;;;5033761;28;20033;-72
2021/05/30 04:54:46;;;;;;;9.73;5.60;;;10.50;99.90;;;;;;5032135;28;20056;-72
2021/05/30 04:57:11;;;;;;;9.65;5.07;;;10.60;99.90;;;;;;5032004;28;20041;-72
2021/05/30 04:59:37;;;;;;;9.55;5.30;;;10.70;99.90;;;;;;5033363;28;20033;-71
2021/05/30 05:02:03;;;;;;;8.93;5.35;;;10.80;99.90;;;;;;5033474;28;20032;-72
2021/05/30 05:04:29;;;;;;;12.10;5.85;;;10.80;99.90;;;;;;5032161;28;20025;-72
2021/05/30 05:06:55;;;;;;;9.02;5.28;;;10.80;99.90;;;;;;5033109;28;20037;-71
2021/05/30 05:09:20;;;;;;;10.65;5.15;;;10.90;99.90;;;;;;5033238;28;20474;-72
2021/05/30 05:11:46;;;;;;;9.48;5.28;;;10.90;99.90;;;;;;5033087;28;20501;-72
2021/05/30 05:14:12;;;;;;;8.63;4.85;;;11.00;99.90;;;;;;5032891;28;20036;-72
2021/05/30 05:16:38;;;;;;;8.07;5.13;;;11.10;99.90;;;;;;5033009;28;20037;-72
2021/05/30 05:19:05;;;;;;;9.38;5.65;;;11.20;99.90;;;;;;5033155;28;20033;-72
2021/05/30 05:21:31;;;;;;;9.98;5.07;;;11.20;99.90;;;;;;5031869;28;20045;-72
2021/05/30 05:23:56;;;;;;;9.15;5.15;;;11.30;99.90;;;;;;5031745;28;20064;-72
2021/05/30 05:26:23;;;;;;;8.80;5.03;;;11.40;99.90;;;;;;5031711;28;20053;-72
2021/05/30 05:28:49;;;;;;;9.05;4.47;;;11.50;99.90;;;;;;5032623;28;20045;-72
2021/05/30 05:31:15;;;;;;;8.70;4.72;;;11.50;99.90;;;;;;5031472;28;20041;-72
2021/05/30 05:33:43;;;;;;;8.30;4.65;;;11.60;99.90;;;;;;5033019;28;20065;-72
2021/05/30 05:36:09;;;;;;;7.90;4.68;;;11.80;99.90;;;;;;5032538;28;20029;-70
2021/05/30 05:38:36;;;;;;;7.07;4.70;;;11.80;99.90;;;;;;5031633;28;20061;-73
2021/05/30 05:41:02;;;;;;;9.40;4.43;;;11.90;99.90;;;;;;5032660;28;20076;-73
2021/05/30 05:43:28;;;;;;;10.20;4.72;;;11.90;99.90;;;;;;5032482;28;20561;-69
2021/05/30 05:45:54;;;;;;;10.63;4.57;;;12.10;99.90;;;;;;5031601;28;20128;-69
2021/05/30 05:48:20;;;;;;;7.53;4.28;;;12.20;99.90;;;;;;5032488;28;20041;-69
2021/05/30 05:50:47;;;;;;;10.23;4.60;;;12.30;99.90;;;;;;5032353;28;20630;-69
2021/05/30 05:53:13;;;;;;;8.95;4.45;;;12.40;99.90;;;;;;5030281;28;20127;-69
2021/05/30 05:55:39;;;;;;;6.47;4.00;;;12.60;99.90;;;;;;5031894;28;20425;-70
2021/05/30 05:58:05;;;;;;;10.90;4.80;;;12.60;99.90;;;;;;5030929;28;20033;-71
2021/05/30 06:00:32;;;;;;;9.57;5.18;;;12.70;99.90;;;;;;5032589;28;20040;-70
2021/05/30 06:02:58;;;;;;;6.72;4.05;;;12.70;99.90;;;;;;5031444;28;20037;-73
2021/05/30 06:05:25;;;;;;;7.65;4.55;;;12.90;99.90;;;;;;5032216;28;20443;-73
2021/05/30 06:07:56;;;;;;;6.57;3.97;;;12.90;99.90;;;;;;5038682;28;20060;-67
2021/05/30 06:10:25;;;;;;;;;;;13.20;99.90;;;;;;5053179;28;20079;-67
2021/05/30 06:12:57;;;;;;;6.22;3.50;;;13.70;99.90;;;;;;5067714;28;19982;-67
2021/05/30 06:15:24;;;;;;;6.18;3.58;;;13.90;99.90;;;;;;5052457;28;20116;-66
2021/05/30 06:17:56;;;;;;;5.35;3.28;;;14.00;99.90;;;;;;5049351;28;20060;-68
2021/05/30 06:20:25;;;;;;;6.78;3.58;;;14.10;99.90;;;;;;5051223;28;20037;-67
2021/05/30 06:22:51;;;;;;;8.80;4.43;;;14.00;99.90;;;;;;5050747;28;20500;-66
2021/05/30 06:25:18;;;;;;;6.05;3.30;;;14.10;99.90;;;;;;5052130;28;20037;-68
2021/05/30 06:27:43;;;;;;;6.53;3.38;;;14.20;99.90;;;;;;5050629;28;20055;-68
2021/05/30 06:30:10;;;;;;;5.32;3.17;;;14.20;99.90;;;;;;5050961;28;20120;-66
2021/05/30 06:32:36;;;;;;;7.25;3.45;;;14.30;99.90;;;;;;5050424;28;20063;-66
2021/05/30 06:35:04;;;;;;;6.25;3.45;;;14.30;99.90;;;;;;5051757;28;20603;-66
2021/05/30 06:37:30;;;;;;;4.25;2.83;;;14.50;99.90;;;;;;5046350;28;20033;-65
2021/05/30 06:39:55;;;;;;;6.13;3.17;;;14.50;99.90;;;;;;5032057;28;20048;-65
2021/05/30 06:42:21;;;;;;;4.45;2.60;;;14.90;99.90;;;;;;5031946;28;20167;-66
2021/05/30 06:44:47;;;;;;;4.88;2.80;;;14.90;99.90;;;;;;5032355;28;20071;-66
2021/05/30 06:47:13;;;;;;;7.38;3.00;;;15.00;99.90;;;;;;5032030;28;20048;-67
2021/05/30 06:49:39;;;;;;;4.50;2.72;;;15.00;99.90;;;;;;5030594;28;20026;-66
2021/05/30 06:52:05;;;;;;;4.43;2.33;;;15.20;99.90;;;;;;5031791;28;20083;-68
2021/05/30 06:54:31;;;;;;;6.80;3.03;;;15.30;99.90;;;;;;5031731;28;20446;-71
2021/05/30 06:56:56;;;;;;;5.05;2.30;;;15.30;99.90;;;;;;5032052;28;20030;-67
2021/05/30 06:59:23;;;;;;;4.20;2.40;;;15.40;99.90;;;;;;5031572;28;20033;-69
2021/05/30 07:01:49;;;;;;;5.25;2.35;;;15.20;99.90;;;;;;5032053;28;20029;-66
2021/05/30 07:04:14;;;;;;;4.47;2.60;;;15.20;99.90;;;;;;5031561;28;20045;-65
2021/05/30 07:06:40;;;;;;;5.55;2.63;;;15.30;99.90;;;;;;5031679;28;20389;-68
2021/05/30 07:09:06;;;;;;;5.30;2.63;;;15.20;99.90;;;;;;5050879;28;20029;-67
2021/05/30 07:11:34;;;;;;;8.02;2.55;;;15.40;99.90;;;;;;5051061;28;20049;-67
2021/05/30 07:13:59;;;;;;;8.82;2.78;;;15.40;99.90;;;;;;5035054;28;20144;-70
2021/05/30 07:16:26;;;;;;;5.95;2.90;;;15.60;99.90;;;;;;5034137;28;20048;-71
2021/05/30 07:18:51;;;;;;;7.43;2.90;;;15.70;99.90;;;;;;5035152;28;20040;-66
2021/05/30 07:21:17;;;;;;;7.35;2.90;;;15.80;99.90;;;;;;5035260;28;20033;-67
2021/05/30 07:23:43;;;;;;;8.55;3.22;;;15.90;99.90;;;;;;5033699;28;20368;-68
2021/05/30 07:26:09;;;;;;;7.03;3.00;;;16.10;99.90;;;;;;5034333;28;20083;-68
2021/05/30 07:28:35;;;;;;;5.75;3.10;;;16.20;99.90;;;;;;5034740;28;20058;-68
2021/05/30 07:31:01;;;;;;;7.75;3.22;;;16.30;99.70;;;;;;5034844;28;20107;-67
2021/05/30 07:33:27;;;;;;;4.15;2.63;;;16.50;99.70;;;;;;5050140;28;20474;-68
2021/05/30 07:35:53;;;;;;;4.72;2.45;;;16.20;99.10;;;;;;5050029;28;20033;-68
2021/05/30 07:38:20;;;;;;;4.32;2.40;;;16.20;99.50;;;;;;5049986;28;20033;-73
2021/05/30 07:40:46;;;;;;;4.97;2.33;;;16.30;99.30;;;;;;5049112;28;20056;-72
2021/05/30 07:43:13;;;;;;;4.10;2.33;;;16.40;98.30;;;;;;5034563;28;20034;-73
2021/05/30 07:45:39;;;;;;;5.22;2.40;;;16.70;97.30;;;;;;5034774;28;20117;-72
2021/05/30 07:48:05;;;;;;;3.67;2.53;;;16.80;96.30;;;;;;5033141;28;20454;-72
2021/05/30 07:50:31;;;;;;;3.95;2.50;;;16.80;96.20;;;;;;5049621;28;20091;-72
2021/05/30 07:52:57;;;;;;;5.60;2.72;;;16.90;95.60;;;;;;5049796;28;20037;-72
2021/05/30 07:55:23;;;;;;;5.53;2.20;;;16.90;94.90;;;;;;5050106;28;20378;-73
2021/05/30 07:57:49;;;;;;;3.72;2.40;;;16.90;95.30;;;;;;5034592;28;20116;-73
2021/05/30 08:00:17;;;;;;;5.55;2.28;;;17.00;96.10;;;;;;5034619;28;20048;-72
2021/05/30 08:02:44;;;;;;;7.78;3.83;;;17.10;95.50;;;;;;5034564;28;20474;-72
2021/05/30 08:05:16;;;;;;;5.68;2.55;;;17.20;96.20;;;;;;5034121;28;20033;-72
2021/05/30 08:07:42;;;;;;;5.82;3.20;;;17.30;95.20;;;;;;5033158;28;20120;-73
2021/05/30 08:10:08;;;;;;;4.50;2.70;;;17.30;96.00;;;;;;5032763;28;20037;-73
2021/05/30 08:12:35;;;;;;;7.38;4.03;;;17.20;95.10;;;;;;5034118;28;20036;-73
2021/05/30 08:15:00;;;;;;;4.55;2.58;;;17.30;96.30;;;;;;5034040;28;20120;-73
2021/05/30 08:17:28;;;;;;;4.10;1.90;;;17.40;95.30;;;;;;5051793;28;20128;-73
2021/05/30 08:19:54;;;;;;;3.85;2.38;;;17.50;95.20;;;;;;5031890;28;20375;-72
2021/05/30 08:22:20;;;;;;;4.88;2.40;;;17.70;94.70;;;;;;5032368;28;20041;-72
2021/05/30 08:24:47;;;;;;;3.20;1.80;;;17.80;92.90;;;;;;5032820;28;20032;-72
2021/05/30 08:27:14;;;;;;;4.50;2.50;;;17.90;93.10;;;;;;5033804;28;20029;-72
2021/05/30 08:29:41;;;;;;;3.50;2.30;;;18.00;93.50;;;;;;5033744;28;20029;-73
2021/05/30 08:32:09;;;;;;;4.30;2.40;;;18.10;92.60;;;;;;5048897;28;20033;-73
2021/05/30 08:34:37;;;;;;;5.72;2.30;;;18.00;93.70;;;;;;5033764;28;20029;-73
2021/05/30 08:37:04;;;;;;;5.25;2.42;;;18.10;92.70;;;;;;5049171;28;20113;-72
2021/05/30 08:39:30;;;;;;;5.65;2.17;;;18.00;92.70;;;;;;5048879;28;20045;-73
2021/05/30 08:41:56;;;;;;;5.60;2.50;;;18.10;92.60;;;;;;5049154;28;20056;-72
2021/05/30 08:44:22;;;;;;;4.05;2.45;;;18.20;93.00;;;;;;5033777;28;20084;-73
2021/05/30 08:46:48;;;;;;;3.40;2.15;;;18.40;93.30;;;;;;5033843;28;20041;-72
2021/05/30 08:49:14;;;;;;;3.40;1.98;;;18.50;91.10;;;;;;5033340;28;20033;-73
2021/05/30 08:51:41;;;;;;;2.85;1.83;;;18.40;90.00;;;;;;5048640;28;20029;-72
2021/05/30 08:54:19;;;;;;;3.53;2.17;;;18.70;91.10;;;;;;5048932;28;20457;-72
2021/05/30 08:56:47;;;;;;;26.75;2.80;;;18.70;90.40;;;;;;5013556;28;20129;-72
2021/05/30 08:59:34;;;;;;;4.15;2.13;;;18.70;90.60;;;;;;5028718;28;20034;-73
2021/05/30 09:02:11;;;;;;;5.20;2.47;;;18.50;90.50;;;;;;5012601;28;20038;-72
2021/05/30 09:04:47;;;;;;;4.15;2.10;;;18.50;90.00;;;;;;5012056;28;20038;-73
2021/05/30 09:07:14;;;;;;;4.40;2.35;;;18.70;90.10;;;;;;5013301;28;20099;-73
2021/05/30 09:09:46;;;;;;;3.00;1.95;;;18.90;89.90;;;;;;5012242;28;20470;-73
2021/05/30 09:12:31;;;;;;;4.05;2.10;;;19.00;88.10;;;;;;5013444;28;20137;-73
2021/05/30 09:14:57;;;;;;;2.88;1.73;;;19.20;88.40;;;;;;5012165;28;20446;-73
2021/05/30 09:17:25;;;;;;;6.93;3.03;;;19.40;83.90;;;;;;5012958;28;20475;-73
2021/05/30 09:19:53;;;;;;;5.93;2.35;;;19.20;81.00;;;;;;5012010;28;20029;-73
2021/05/30 09:22:20;;;;;;;5.32;2.03;;;19.20;83.30;;;;;;5012169;28;20025;-73
2021/05/30 09:25:12;;;;;;;4.05;2.05;;;19.20;86.10;;;;;;5017437;28;20103;-73
2021/05/30 09:27:46;;;;;;;4.80;2.00;;;19.40;84.70;;;;;;5032564;28;20493;-73
2021/05/30 09:30:39;;;;;;;4.43;2.08;;;19.50;82.20;;;;;;5048088;28;20041;-72
2021/05/30 09:33:13;;;;;;;4.20;1.88;;;19.70;79.40;;;;;;5046390;28;20120;-72
2021/05/30 09:35:47;;;;;;;5.93;2.17;;;19.90;77.80;;;;;;5032866;28;20025;-73
2021/05/30 09:38:36;;;;;;;5.18;1.92;;;19.90;78.60;;;;;;5032591;28;20042;-73
2021/05/30 09:41:10;;;;;;;4.18;1.83;;;19.90;76.80;;;;;;5032394;28;20381;-72
2021/05/30 09:43:47;;;;;;;2.80;1.50;;;20.00;73.60;;;;;;5032574;28;20440;-73
2021/05/30 09:46:22;;;;;;;6.32;1.95;;;20.40;73.70;;;;;;5031581;28;20025;-72
2021/05/30 09:48:51;;;;;;;3.28;1.75;;;20.30;71.10;;;;;;5048253;28;20033;-72
2021/05/30 09:51:38;;;;;;;7.07;3.30;;;20.50;70.50;;;;;;5032629;28;20076;-72
2021/05/30 09:54:17;;;;;;;3.38;1.77;;;20.40;69.90;;;;;;5032512;28;20029;-73
2021/05/30 09:56:49;;;;;;;3.50;1.52;;;20.30;70.80;;;;;;5030998;28;20478;-74
2021/05/30 09:59:21;;;;;;;4.15;2.85;;;20.40;70.10;;;;;;5032021;28;20041;-72
2021/05/30 10:02:00;;;;;;;4.07;1.60;;;20.50;73.00;;;;;;5032356;28;20553;-72
2021/05/30 10:04:36;;;;;;;2.95;1.48;;;20.50;69.50;;;;;;5030899;28;20030;-72
2021/05/30 10:07:05;;;;;;;4.30;1.83;;;20.80;67.80;;;;;;5031337;28;20108;-72
2021/05/30 10:09:32;;;;;;;4.70;1.83;;;21.00;66.80;;;;;;5032268;28;20052;-73
2021/05/30 10:11:59;;;;;;;2.72;1.70;;;20.70;66.30;;;;;;5047566;28;20044;-72
2021/05/30 10:14:26;;;;;;;3.78;1.92;;;20.70;65.50;;;;;;5031928;28;20512;-73
2021/05/30 10:16:52;;;;;;;3.08;1.85;;;20.70;66.30;;;;;;5031278;28;20441;-72
2021/05/30 10:19:44;;;;;;;3.92;2.00;;;21.00;68.60;;;;;;5049765;28;20029;-71
2021/05/30 10:22:11;;;;;;;7.95;2.28;;;21.00;65.60;;;;;;5030947;28;20394;-72
2021/05/30 10:24:43;;;;;;;3.22;1.63;;;20.80;66.50;;;;;;5030706;28;20033;-72
2021/05/30 10:27:24;;;;;;;4.82;2.10;;;21.10;67.00;;;;;;5046794;28;20040;-72
2021/05/30 10:30:08;;;;;;;3.00;2.00;;;21.50;66.80;;;;;;5046736;28;20033;-72
2021/05/30 10:32:36;;;;;;;2.40;1.40;;;21.90;66.10;;;;;;5031656;28;20045;-73
2021/05/30 10:35:19;;;;;;;2.67;1.50;;;21.90;65.00;;;;;;5030578;28;20408;-73
2021/05/30 10:37:54;;;;;;;4.13;1.83;;;22.00;64.10;;;;;;5032254;28;20048;-73
2021/05/30 10:40:23;;;;;;;5.25;1.50;;;22.20;64.30;;;;;;5046688;28;20033;-73
2021/05/30 10:43:10;;;;;;;3.03;1.50;;;22.10;60.90;;;;;;5031826;28;20413;-73
2021/05/30 10:45:43;;;;;;;3.25;1.75;;;22.10;60.70;;;;;;5051139;28;20033;-73
2021/05/30 10:48:14;;;;;;;3.58;1.67;;;22.00;60.60;;;;;;5051346;28;20029;-73
2021/05/30 10:53:46;;;;;;;2.63;1.30;;;22.30;60.80;;;;;;5048501;28;20597;-73
2021/05/30 10:56:24;;;;;;;3.47;1.40;;;22.50;58.70;;;;;;5035602;28;20056;-73
2021/05/30 10:59:11;;;;;;;2.22;1.23;;;22.70;58.20;;;;;;5035734;28;20048;-73
2021/05/30 11:01:48;;;;;;;3.58;1.65;;;22.80;56.10;;;;;;5035534;28;20038;-73
2021/05/30 11:04:24;;;;;;;2.50;1.38;;;22.90;58.10;;;;;;5035510;28;20061;-73
2021/05/30 11:06:59;;;;;;;6.85;1.77;;;23.10;56.60;;;;;;5035591;28;20072;-73
2021/05/30 11:12:19;;;;;;;2.70;1.50;;;22.50;56.70;;;;;;5035204;28;20030;-73
2021/05/30 11:15:06;;;;;;;2.58;1.45;;;22.50;59.70;;;;;;5035383;28;20393;-73
2021/05/30 11:17:43;;;;;;;3.45;1.60;;;23.00;57.70;;;;;;5035155;28;20120;-73
2021/05/30 11:20:28;;;;;;;6.72;1.38;;;23.50;59.00;;;;;;5050935;28;20176;-71
2021/05/30 11:23:00;;;;;;;2.30;1.38;;;22.80;57.80;;;;;;5049275;28;20381;-73
2021/05/30 11:25:50;;;;;;;3.45;1.85;;;22.90;58.40;;;;;;5050176;28;20026;-73
2021/05/30 11:28:24;;;;;;;3.35;1.42;;;22.80;57.30;;;;;;5049123;28;20475;-73
2021/05/30 11:31:01;;;;;;;4.07;1.60;;;23.10;56.50;;;;;;5050660;28;20052;-71
2021/05/30 11:33:28;;;;;;;4.30;1.70;;;23.00;56.00;;;;;;5034981;28;20041;-72
2021/05/30 11:36:05;;;;;;;2.40;1.38;;;23.10;55.20;;;;;;5034969;28;20516;-72
2021/05/30 11:38:54;;;;;;;2.92;1.70;;;22.90;54.30;;;;;;5033695;28;20432;-73
2021/05/30 11:41:36;;;;;;;4.13;1.65;;;22.60;56.60;;;;;;5033434;28;20385;-72
2021/05/30 11:44:11;;;;;;;3.72;1.80;;;23.30;55.40;;;;;;5035208;28;20026;-73
2021/05/30 11:47:00;;;;;;;3.35;2.10;;;23.20;55.30;;;;;;5049644;28;20120;-73
2021/05/30 11:49:38;;;;;;;3.22;1.83;;;23.40;54.90;;;;;;5049506;28;20044;-73
2021/05/30 11:52:13;;;;;;;7.82;2.72;;;23.40;54.50;;;;;;5049268;28;20032;-71
2021/05/30 11:54:42;;;;;;;2.17;1.30;;;22.90;53.10;;;;;;5032984;28;20045;-73
2021/05/30 11:57:11;;;;;;;4.20;1.70;;;23.30;54.80;;;;;;5034586;28;20029;-73
2021/05/30 11:59:54;;;;;;;3.80;1.83;;;23.60;53.50;;;;;;5032957;28;20033;-73
2021/05/30 12:02:38;;;;;;;2.50;1.60;;;23.40;52.00;;;;;;5033177;28;20061;-73
2021/05/30 12:05:10;;;;;;;3.08;1.85;;;23.60;54.40;;;;;;5034335;28;20087;-73
2021/05/30 12:07:37;;;;;;;4.85;1.70;;;24.30;54.90;;;;;;5049166;28;20516;-73
2021/05/30 12:10:11;;;;;;;4.57;2.00;;;24.30;52.30;;;;;;5042263;28;20032;-72
2021/05/30 12:12:48;;;;;;;4.07;1.50;;;24.20;53.10;;;;;;5052789;28;20083;-71
2021/05/30 12:15:20;;;;;;;3.30;1.58;;;24.80;52.10;;;;;;5053960;28;20031;-72
2021/05/30 12:17:55;;;;;;;3.28;1.63;;;24.80;55.50;;;;;;5054100;28;20401;-72
2021/05/30 12:20:33;;;;;;;3.33;1.92;;;24.50;57.30;;;;;;5054235;28;20041;-73
2021/05/30 12:23:28;;;;;;;8.93;3.17;;;24.20;58.20;;;;;;5052795;28;20048;-73
2021/05/30 12:25:56;;;;;;;3.88;1.92;;;24.90;55.90;;;;;;5029788;28;20315;-72
2021/05/30 12:28:34;;;;;;;5.78;1.50;;;24.90;54.30;;;;;;5033485;28;20441;-62
2021/05/30 12:31:05;;;;;;;6.00;1.70;;;24.80;54.10;;;;;;5049327;28;20438;-59
2021/05/30 12:34:03;;;;;;;3.42;1.60;;;24.10;54.40;;;;;;5033947;28;20128;-58
2021/05/30 12:36:50;;;;;;;2.65;1.60;;;23.70;56.30;;;;;;5033856;28;20425;-58
2021/05/30 12:39:25;;;;;;;3.65;2.03;;;23.70;55.80;;;;;;5033969;28;20544;-60
2021/05/30 12:42:07;;;;;;;3.17;1.60;;;23.50;56.40;;;;;;5033496;28;20049;-61
2021/05/30 12:44:51;;;;;;;3.08;1.88;;;23.80;55.90;;;;;;5031815;28;20441;-59
2021/05/30 12:47:25;;;;;;;2.88;1.60;;;24.00;54.80;;;;;;5033403;28;20025;-59
2021/05/30 12:49:55;;;;;;;2.88;1.60;;;24.20;54.00;;;;;;5033366;28;20037;-59
2021/05/30 12:52:25;;;;;;;2.92;1.50;;;24.30;54.50;;;;;;5033824;28;20033;-59
2021/05/30 12:55:06;;;;;;;2.38;1.48;;;24.60;55.00;;;;;;5033755;28;20037;-60
2021/05/30 12:57:48;;;;;;;2.85;1.90;;;24.80;53.60;;;;;;5033607;28;20033;-60
2021/05/30 13:00:36;;;;;;;2.85;1.65;;;24.40;53.20;;;;;;5033695;28;20022;-60
2021/05/30 13:03:10;;;;;;;3.00;1.73;;;24.00;54.80;;;;;;5032051;28;20044;-59
2021/05/30 13:05:44;;;;;;;3.28;1.98;;;24.10;54.50;;;;;;5033195;28;20033;-60